Time;durP1;ratioP1;P1;durP2;ratioP2;P2;SDS_P1;SDS_P2;PMS_P1;PMS_P2;Temp;Humidity;BMP_temperature;BMP_pressure;BME280_temperature;BME280_humidity;BME280_pressure;Samples;Min_cycle;Max_cycle;Signal;HPM_P1;HPM_P2
2022/04/01 00:00:42;;;;;;;20.02;16.08;;;;;;;14.93;68.47;97448.72;4493881;31;33981;-83
2022/04/01 00:03:10;;;;;;;22.35;16.00;;;;;;;15.10;67.76;97445.25;4479345;31;33921;-84
2022/04/01 00:05:39;;;;;;;18.83;14.52;;;;;;;14.87;68.66;97449.34;4481974;31;32709;-84
2022/04/01 00:08:08;;;;;;;21.95;15.48;;;;;;;14.82;68.94;97451.62;4494087;31;33901;-85
2022/04/01 00:10:38;;;;;;;21.80;16.40;;;;;;;14.84;68.91;97457.59;4480128;31;33577;-84
2022/04/01 00:13:06;;;;;;;22.27;15.85;;;;;;;14.84;68.92;97454.94;4489603;31;33266;-85
2022/04/01 00:15:34;;;;;;;28.92;16.90;;;;;;;14.76;69.16;97458.34;4491601;31;33824;-84
2022/04/01 00:18:03;;;;;;;21.77;15.07;;;;;;;14.81;69.03;97461.41;4491203;31;34382;-85
2022/04/01 00:20:31;;;;;;;25.35;16.52;;;;;;;14.82;69.04;97452.44;4492509;31;33598;-87
2022/04/01 00:22:59;;;;;;;23.25;16.65;;;;;;;15.01;68.28;97440.00;4478613;31;32935;-85
2022/04/01 00:25:27;;;;;;;25.00;17.98;;;;;;;14.88;68.60;97451.00;4476396;31;33535;-86
2022/04/01 00:27:55;;;;;;;25.42;17.87;;;;;;;14.83;68.88;97453.28;4479513;31;33797;-86
2022/04/01 00:30:22;;;;;;;28.05;18.85;;;;;;;14.73;69.25;97447.19;4491205;31;33617;-86
2022/04/01 00:32:50;;;;;;;29.92;20.00;;;;;;;14.99;68.15;97441.97;4466702;31;33855;-86
2022/04/01 00:35:18;;;;;;;36.20;19.67;;;;;;;14.79;68.62;97433.31;4478942;31;33502;-84
2022/04/01 00:37:46;;;;;;;30.73;20.27;;;;;;;14.63;69.33;97443.78;4491467;31;32036;-83
2022/04/01 00:40:14;;;;;;;31.80;19.90;;;;;;;14.54;69.75;97443.69;4491032;31;33777;-87
2022/04/01 00:42:41;;;;;;;35.53;20.65;;;;;;;14.71;69.14;97439.37;4480462;31;33924;-87
2022/04/01 00:45:10;;;;;;;38.63;21.10;;;;;;;14.55;69.54;97429.41;4478294;31;32764;-87
2022/04/01 00:47:38;;;;;;;32.60;20.12;;;;;;;14.78;68.98;97423.69;4480392;31;33031;-84
2022/04/01 00:50:07;;;;;;;34.42;20.20;;;;;;;14.98;68.03;97416.38;4477891;31;32537;-84
2022/04/01 00:52:36;;;;;;;36.75;20.88;;;;;;;14.72;68.93;97424.28;4476967;31;33020;-85
2022/04/01 00:55:05;;;;;;;39.53;19.35;;;;;;;14.53;69.87;97431.41;4485023;31;33598;-84
2022/04/01 00:57:33;;;;;;;39.83;20.85;;;;;;;14.46;70.20;97434.75;4480252;31;33076;-85
2022/04/01 01:00:01;;;;;;;40.28;21.00;;;;;;;14.45;70.25;97428.62;4479628;31;33349;-85
2022/04/01 01:02:29;;;;;;;41.33;22.00;;;;;;;14.49;70.16;97422.06;4481602;31;34239;-85
2022/04/01 01:04:57;;;;;;;41.72;21.70;;;;;;;14.85;68.83;97417.59;4479204;31;32979;-84
2022/04/01 01:07:25;;;;;;;37.40;22.08;;;;;;;14.73;69.14;97421.47;4490012;31;34530;-83
2022/04/01 01:09:52;;;;;;;39.38;20.25;;;;;;;14.63;69.52;97435.81;4489840;31;34312;-84
2022/04/01 01:12:20;;;;;;;35.47;19.87;;;;;;;14.51;70.15;97440.47;4489709;31;33649;-83
2022/04/01 01:14:49;;;;;;;38.05;20.27;;;;;;;14.36;70.74;97440.13;4491180;31;33931;-84
2022/04/01 01:17:17;;;;;;;33.33;20.08;;;;;;;14.52;70.21;97435.00;4491140;31;33266;-84
2022/04/01 01:19:45;;;;;;;38.55;21.45;;;;;;;14.44;70.53;97439.41;4494349;31;32809;-84
2022/04/01 01:22:14;;;;;;;43.87;22.17;;;;;;;14.64;69.90;97432.16;4477008;31;32759;-85
2022/04/01 01:24:43;;;;;;;39.75;20.35;;;;;;;14.42;70.53;97436.88;4478282;31;32859;-85
2022/04/01 01:27:13;;;;;;;36.83;20.35;;;;;;;14.53;70.20;97436.72;4490672;31;33203;-84
2022/04/01 01:29:42;;;;;;;38.58;19.75;;;;;;;14.52;70.27;97432.34;4476893;31;32448;-84
2022/04/01 01:32:12;;;;;;;34.45;21.35;;;;;;;14.28;71.20;97432.87;4492173;31;32672;-85
2022/04/01 01:34:40;;;;;;;37.42;20.48;;;;;;;14.43;70.76;97435.91;4479119;31;32754;-84
2022/04/01 01:37:11;;;;;;;40.47;21.92;;;;;;;14.47;70.73;97428.47;4478467;31;32175;-86
2022/04/01 01:39:39;;;;;;;42.07;22.67;;;;;;;14.52;70.26;97427.03;4488767;31;34241;-86
2022/04/01 01:42:08;;;;;;;35.10;20.80;;;;;;;14.45;70.59;97428.62;4479304;31;33814;-86
2022/04/01 01:44:35;;;;;;;36.75;20.62;;;;;;;14.48;70.68;97420.41;4477742;31;32989;-86
2022/04/01 01:47:05;;;;;;;38.13;21.05;;;;;;;14.51;70.33;97421.91;4480574;31;34034;-86
2022/04/01 01:49:33;;;;;;;29.92;20.45;;;;;;;14.46;70.71;97430.28;4478499;31;33729;-86
2022/04/01 01:55:03;;;;;;;43.90;21.77;;;;;;;14.64;69.88;97429.50;4466999;31;34341;-86
2022/04/01 01:57:31;;;;;;;39.88;21.85;;;;;;;14.52;70.33;97429.69;4477224;31;32785;-84
2022/04/01 01:59:59;;;;;;;39.90;20.08;;;;;;;14.44;70.62;97426.94;4475942;31;34043;-84
2022/04/01 02:02:28;;;;;;;41.28;21.50;;;;;;;14.74;69.60;97419.66;4490075;31;34018;-84
2022/04/01 02:04:56;;;;;;;45.78;21.62;;;;;;;14.56;70.08;97425.78;4491149;31;34048;-83
2022/04/01 02:07:24;;;;;;;43.53;21.33;;;;;;;14.45;70.56;97422.47;4490790;31;33834;-84
2022/04/01 02:09:53;;;;;;;35.30;20.90;;;;;;;14.49;70.54;97427.38;4491704;31;34592;-84
2022/04/01 02:12:21;;;;;;;34.83;21.12;;;;;;;14.59;70.26;97429.97;4485135;31;33749;-83
2022/04/01 02:14:49;;;;;;;43.95;21.62;;;;;;;14.41;70.82;97419.28;4480361;31;33109;-84
2022/04/01 02:17:16;;;;;;;37.50;22.13;;;;;;;14.30;71.33;97417.66;4490305;31;32599;-84
2022/04/01 02:19:44;;;;;;;43.50;21.85;;;;;;;14.55;70.35;97420.62;4478803;31;33850;-84
2022/04/01 02:22:12;;;;;;;38.35;21.42;;;;;;;14.47;70.73;97425.81;4477324;31;33347;-84
2022/04/01 02:24:41;;;;;;;39.28;21.73;;;;;;;14.51;70.60;97425.37;4489628;31;33741;-85
2022/04/01 02:27:09;;;;;;;38.15;21.58;;;;;;;14.53;70.60;97415.47;4479041;31;32757;-84
2022/04/01 02:29:37;;;;;;;36.85;20.35;;;;;;;14.57;70.52;97419.50;4478069;31;32469;-85
2022/04/01 02:32:06;;;;;;;37.00;20.33;;;;;;;14.57;70.44;97398.25;4491175;31;35215;-84
2022/04/01 02:34:36;;;;;;;37.75;21.05;;;;;;;15.04;68.46;97395.34;4478498;31;33598;-84
2022/04/01 02:37:04;;;;;;;38.50;20.73;;;;;;;15.14;67.90;97389.09;4490971;31;33745;-85
2022/04/01 02:39:33;;;;;;;36.65;20.17;;;;;;;14.91;68.63;97386.94;4474908;31;33849;-86
2022/04/01 02:42:00;;;;;;;32.10;20.27;;;;;;;14.73;69.31;97384.28;4477553;31;33395;-86
2022/04/01 02:44:28;;;;;;;33.92;20.20;;;;;;;14.76;69.19;97383.97;4492283;31;34642;-86
2022/04/01 02:46:56;;;;;;;32.38;18.35;;;;;;;14.55;70.17;97391.41;4490298;31;33602;-85
2022/04/01 02:49:24;;;;;;;30.12;18.37;;;;;;;14.45;70.62;97396.75;4492741;31;33645;-85
2022/04/01 02:51:53;;;;;;;28.58;19.85;;;;;;;14.38;70.86;97395.66;4488964;31;33993;-86
2022/04/01 02:54:21;;;;;;;28.80;19.37;;;;;;;14.49;70.55;97403.47;4490559;31;34329;-85
2022/04/01 02:56:49;;;;;;;27.08;17.80;;;;;;;14.51;70.52;97404.13;4476436;31;33029;-85
2022/04/01 02:59:17;;;;;;;24.85;17.08;;;;;;;14.68;70.11;97388.38;4489289;31;33097;-85
2022/04/01 03:01:44;;;;;;;29.80;18.80;;;;;;;14.61;70.07;97380.16;4492254;31;33604;-86
2022/04/01 03:04:12;;;;;;;27.55;18.37;;;;;;;14.74;69.68;97387.78;4487148;31;33938;-86
2022/04/01 03:06:43;;;;;;;25.58;17.42;;;;;;;14.69;69.36;97382.09;4465185;31;33236;-86
2022/04/01 03:09:12;;;;;;;21.95;15.27;;;;;;;14.87;68.78;97374.94;4465830;31;32909;-86
2022/04/01 03:11:41;;;;;;;26.83;15.88;;;;;;;14.82;68.91;97377.22;4478062;31;34671;-86
2022/04/01 03:14:11;;;;;;;24.08;15.55;;;;;;;14.55;69.92;97375.47;4477640;31;33402;-86
2022/04/01 03:16:43;;;;;;;21.90;15.82;;;;;;;14.37;70.74;97390.50;4465119;31;32464;-86
2022/04/01 03:19:11;;;;;;;20.52;14.40;;;;;;;14.33;70.98;97397.94;4489944;31;33048;-86
2022/04/01 03:21:42;;;;;;;21.98;15.50;;;;;;;14.22;71.40;97416.72;4476701;31;33609;-86
2022/04/01 03:24:10;;;;;;;21.48;14.52;;;;;;;14.13;71.95;97412.31;4476862;31;34470;-86
2022/04/01 03:26:39;;;;;;;22.13;14.90;;;;;;;14.58;70.44;97399.91;4476958;31;33628;-86
2022/04/01 03:29:08;;;;;;;24.27;15.70;;;;;;;14.85;69.04;97379.56;4476400;31;33039;-86
2022/04/01 03:31:37;;;;;;;18.08;13.73;;;;;;;14.57;69.87;97363.72;4477022;31;33484;-86
2022/04/01 03:34:05;;;;;;;17.75;14.07;;;;;;;14.48;70.14;97375.25;4490774;31;34040;-84
2022/04/01 03:36:34;;;;;;;17.90;12.43;;;;;;;14.07;71.92;97384.56;4450694;31;32330;-84
2022/04/01 03:39:03;;;;;;;18.30;12.68;;;;;;;14.11;72.09;97390.41;4491539;31;33525;-84
2022/04/01 03:41:32;;;;;;;16.15;11.60;;;;;;;14.17;71.93;97390.62;4476668;31;32901;-84
2022/04/01 03:44:00;;;;;;;14.57;12.02;;;;;;;14.25;71.65;97397.88;4478426;31;33740;-85
2022/04/01 03:46:59;;;;;;;13.95;11.27;;;;;;;14.19;71.77;97401.91;4463282;31;32868;-85
2022/04/01 03:49:29;;;;;;;10.73;9.38;;;;;;;14.24;71.55;97397.03;4483923;31;32393;-85
2022/04/01 03:51:58;;;;;;;10.88;9.60;;;;;;;14.29;71.49;97393.91;4464568;31;33155;-85
2022/04/01 03:54:27;;;;;;;11.60;9.40;;;;;;;14.40;71.11;97396.38;4478527;31;34433;-86
2022/04/01 03:57:01;;;;;;;10.50;9.35;;;;;;;14.47;70.94;97396.59;4477592;31;33674;-85
2022/04/01 03:59:40;;;;;;;10.45;8.77;;;;;;;14.47;70.89;97399.25;4488371;31;33574;-85
2022/04/01 04:02:13;;;;;;;10.52;8.75;;;;;;;14.51;70.71;97398.00;4493280;31;34734;-85
2022/04/01 04:04:41;;;;;;;10.23;9.07;;;;;;;14.49;70.69;97386.72;4477429;31;33626;-85
2022/04/01 04:07:10;;;;;;;11.52;8.65;;;;;;;14.48;70.88;97396.50;4480037;31;33425;-86
2022/04/01 04:09:40;;;;;;;11.32;8.63;;;;;;;14.40;70.94;97396.38;4466342;31;32661;-87
2022/04/01 04:12:12;;;;;;;9.38;8.32;;;;;;;14.30;71.25;97398.25;4491687;31;33279;-87
2022/04/01 04:14:41;;;;;;;10.25;8.38;;;;;;;14.62;70.16;97379.19;4479627;31;32503;-86
2022/04/01 04:17:14;;;;;;;11.20;9.15;;;;;;;14.96;68.49;97357.25;4479822;31;33457;-86
2022/04/01 04:19:51;;;;;;;11.52;10.13;;;;;;;14.73;69.13;97356.91;4468537;31;32654;-86
2022/04/01 04:22:29;;;;;;;10.77;8.60;;;;;;;14.47;70.24;97346.16;4492224;31;33614;-86
2022/04/01 04:25:04;;;;;;;11.00;9.60;;;;;;;14.28;71.12;97355.91;4490775;31;33768;-86
2022/04/01 04:27:34;;;;;;;11.00;9.05;;;;;;;14.30;71.16;97359.28;4477246;31;33927;-86
2022/04/01 04:30:08;;;;;;;11.05;8.38;;;;;;;14.33;71.15;97358.13;4466729;31;32569;-86
2022/04/01 04:32:43;;;;;;;11.23;8.35;;;;;;;14.48;70.61;97359.31;4491813;31;33890;-86
2022/04/01 04:35:11;;;;;;;9.77;8.43;;;;;;;14.46;70.65;97355.94;4472798;31;34122;-86
2022/04/01 04:37:45;;;;;;;10.73;8.98;;;;;;;14.44;70.84;97359.75;4465829;31;31893;-87
2022/04/01 04:40:17;;;;;;;11.73;9.07;;;;;;;14.46;70.81;97366.56;4464615;31;33882;-87
2022/04/01 04:42:49;;;;;;;9.77;8.35;;;;;;;14.35;71.19;97380.06;4476786;31;33624;-87
2022/04/01 04:45:20;;;;;;;11.00;8.73;;;;;;;14.45;70.72;97370.19;4476575;31;34343;-86
2022/04/01 04:47:49;;;;;;;10.20;8.98;;;;;;;14.82;69.38;97367.44;4479134;31;32453;-85
2022/04/01 04:50:17;;;;;;;10.13;8.93;;;;;;;14.63;69.98;97380.03;4480275;31;33451;-85
2022/04/01 04:52:48;;;;;;;9.70;8.18;;;;;;;14.64;69.96;97384.34;4477399;31;33853;-86
2022/04/01 04:55:17;;;;;;;12.52;8.93;;;;;;;14.58;70.18;97386.63;4492302;31;34263;-85
2022/04/01 04:57:47;;;;;;;9.55;8.25;;;;;;;14.61;70.07;97385.47;4475287;31;32768;-87
2022/04/01 05:00:19;;;;;;;10.35;8.25;;;;;;;14.82;69.20;97377.22;4475872;31;33634;-87
2022/04/01 05:03:07;;;;;;;12.37;9.20;;;;;;;14.81;69.07;97380.84;4476954;31;32778;-87
2022/04/01 05:05:37;;;;;;;11.90;8.85;;;;;;;14.85;68.93;97376.91;4491931;31;33449;-87
2022/04/01 05:08:27;;;;;;;12.15;9.23;;;;;;;14.58;69.99;97381.31;4477918;31;32999;-86
2022/04/01 05:11:12;;;;;;;10.40;8.73;;;;;;;14.56;70.15;97393.91;4492589;31;33405;-87
2022/04/01 05:13:59;;;;;;;11.80;9.23;;;;;;;14.50;70.40;97399.81;4491397;31;34159;-86
2022/04/01 05:16:48;;;;;;;18.10;11.40;;;;;;;14.44;70.66;97400.41;4489963;31;34176;-86
2022/04/01 05:19:24;;;;;;;17.70;12.20;;;;;;;14.59;70.12;97404.22;4491327;31;33259;-85
2022/04/01 05:22:05;;;;;;;16.55;11.88;;;;;;;14.72;69.11;97400.38;4476551;31;33695;-86
2022/04/01 05:24:46;;;;;;;17.85;11.38;;;;;;;14.72;68.75;97395.06;4488846;31;33605;-86
2022/04/01 05:27:23;;;;;;;16.55;11.48;;;;;;;14.35;70.06;97406.59;4476432;31;32346;-86
2022/04/01 05:29:56;;;;;;;;;;;;;;;14.50;69.65;97402.47;4478574;31;32368;-86
2022/04/01 05:32:25;;;;;;;13.85;10.00;;;;;;;14.64;68.72;97400.28;4492523;31;34929;-86
2022/04/01 05:34:53;;;;;;;16.40;10.15;;;;;;;14.44;69.41;97400.41;4481500;31;33315;-86
2022/04/01 05:37:25;;;;;;;14.10;9.77;;;;;;;13.97;70.83;97389.91;4476271;31;34296;-86
2022/04/01 05:39:53;;;;;;;;;;;;;;;14.28;69.83;97394.91;4478803;31;33030;-86
2022/04/01 05:42:22;;;;;;;12.48;7.65;;;;;;;14.21;70.23;97399.12;4490374;31;34214;-87
2022/04/01 05:44:55;;;;;;;10.38;7.97;;;;;;;14.15;70.28;97394.41;4463412;31;32706;-86
2022/04/01 05:47:24;;;;;;;10.02;7.60;;;;;;;14.25;69.75;97396.03;4476900;31;33105;-85
2022/04/01 05:49:56;;;;;;;12.68;7.40;;;;;;;13.97;70.66;97394.37;4477168;31;33082;-86
2022/04/01 05:52:24;;;;;;;10.90;6.75;;;;;;;14.14;70.04;97390.09;4479091;31;32738;-86
2022/04/01 05:54:52;;;;;;;11.30;6.70;;;;;;;14.16;69.86;97396.09;4464785;31;33177;-86
2022/04/01 05:57:20;;;;;;;9.70;6.30;;;;;;;14.15;69.53;97399.72;4479040;31;33140;-85
2022/04/01 05:59:49;;;;;;;7.45;5.35;;;;;;;14.01;70.05;97407.19;4479015;31;34117;-86
2022/04/01 06:02:30;;;;;;;8.88;5.20;;;;;;;14.00;69.91;97413.47;4477978;31;32842;-85
2022/04/01 06:05:17;;;;;;;8.73;4.53;;;;;;;14.15;68.85;97408.53;4492382;31;33934;-85
2022/04/01 06:07:50;;;;;;;6.47;4.45;;;;;;;13.79;70.04;97403.09;4476556;31;34699;-84
2022/04/01 06:10:30;;;;;;;5.43;3.12;;;;;;;14.11;68.61;97401.84;4476639;31;32137;-84
2022/04/01 06:12:59;;;;;;;5.22;3.30;;;;;;;13.83;69.29;97390.38;4492229;31;33076;-84
2022/04/01 06:15:52;;;;;;;6.20;3.50;;;;;;;14.08;67.89;97396.81;4489605;31;32886;-85
2022/04/01 06:18:31;;;;;;;4.60;3.40;;;;;;;14.03;67.86;97396.44;4474009;31;34965;-82
2022/04/01 06:21:05;;;;;;;4.60;3.97;;;;;;;13.73;68.83;97395.72;4491855;31;33753;-83
2022/04/01 06:23:46;;;;;;;4.15;3.60;;;;;;;13.48;69.53;97397.22;4492172;31;34625;-83
2022/04/01 06:26:15;;;;;;;4.85;3.35;;;;;;;13.58;69.24;97398.03;4480716;31;34661;-82
2022/04/01 06:29:16;;;;;;;4.30;3.30;;;;;;;13.64;68.82;97401.06;4492983;31;33442;-83
2022/04/01 06:31:48;;;;;;;4.15;3.58;;;;;;;13.49;69.12;97396.22;4476820;31;32196;-82
2022/04/01 06:34:25;;;;;;;4.62;3.10;;;;;;;13.61;68.93;97410.13;4471104;31;32529;-82
2022/04/01 06:37:04;;;;;;;3.80;2.55;;;;;;;13.68;68.78;97410.41;4479073;31;32987;-83
2022/04/01 06:39:58;;;;;;;5.70;3.20;;;;;;;13.65;68.34;97414.19;4485917;31;33593;-82
2022/04/01 06:42:31;;;;;;;8.27;3.83;;;;;;;13.44;68.75;97405.59;4467118;32;32286;-84
2022/04/01 06:45:02;;;;;;;7.40;3.40;;;;;;;13.44;69.16;97413.56;4491135;31;32668;-82
2022/04/01 06:47:36;;;;;;;4.80;2.83;;;;;;;13.49;69.17;97406.84;4478421;31;34025;-84
2022/04/01 06:50:04;;;;;;;7.55;3.78;;;;;;;13.64;68.91;97411.69;4473416;31;33754;-83
2022/04/01 06:52:39;;;;;;;5.43;3.35;;;;;;;13.71;68.56;97407.44;4472474;31;31256;-84
2022/04/01 06:55:10;;;;;;;3.73;2.73;;;;;;;13.64;69.14;97411.69;4475807;31;34454;-83
2022/04/01 06:57:47;;;;;;;5.68;3.40;;;;;;;13.65;69.28;97413.34;4489018;31;33669;-83
2022/04/01 07:00:16;;;;;;;4.62;3.33;;;;;;;13.82;68.97;97415.25;4475353;31;34183;-83
2022/04/01 07:02:44;;;;;;;3.92;3.17;;;;;;;14.06;67.77;97404.13;4488168;31;33311;-83
2022/04/01 07:05:12;;;;;;;6.87;3.05;;;;;;;13.97;67.98;97408.47;4489019;31;33686;-83
2022/04/01 07:07:43;;;;;;;4.53;3.10;;;;;;;13.89;68.62;97403.06;4467418;31;32725;-82
2022/04/01 07:10:12;;;;;;;4.68;3.20;;;;;;;13.77;68.92;97407.72;4468946;31;33691;-84
2022/04/01 07:12:40;;;;;;;8.00;3.95;;;;;;;13.85;68.80;97412.28;4477349;31;32975;-83
2022/04/01 07:15:09;;;;;;;6.72;2.90;;;;;;;13.72;69.46;97414.41;4477191;31;33545;-83
2022/04/01 07:17:38;;;;;;;3.60;2.28;;;;;;;13.41;70.51;97422.63;4487247;31;34157;-83
2022/04/01 07:20:12;;;;;;;3.08;1.92;;;;;;;13.54;70.03;97427.63;4484602;31;34692;-83
2022/04/01 07:22:51;;;;;;;3.33;1.65;;;;;;;13.69;68.81;97420.03;4480518;31;33586;-83
2022/04/01 07:25:23;;;;;;;2.03;1.83;;;;;;;13.36;69.12;97430.16;4487364;31;33814;-83
2022/04/01 07:27:53;;;;;;;2.28;1.40;;;;;;;12.97;69.16;97430.16;4489231;31;34087;-83
2022/04/01 07:30:21;;;;;;;2.20;1.75;;;;;;;13.24;68.24;97433.94;4478705;31;33490;-83
2022/04/01 07:32:54;;;;;;;2.72;2.25;;;;;;;13.13;68.05;97437.53;4479421;31;33649;-83
2022/04/01 07:35:22;;;;;;;2.50;2.22;;;;;;;13.07;67.49;97430.16;4492003;31;32885;-83
2022/04/01 07:37:50;;;;;;;3.12;2.12;;;;;;;12.55;68.25;97441.00;4491459;31;34012;-83
2022/04/01 07:40:24;;;;;;;4.25;2.70;;;;;;;12.85;67.32;97428.62;4484893;31;34292;-84
2022/04/01 07:42:53;;;;;;;2.25;1.80;;;;;;;12.90;67.26;97433.50;4493121;31;33904;-83
2022/04/01 07:45:21;;;;;;;4.05;2.15;;;;;;;12.62;68.68;97435.97;4472173;31;33568;-83
2022/04/01 07:47:51;;;;;;;4.28;2.22;;;;;;;12.91;67.04;97440.47;4488817;31;33002;-83
2022/04/01 07:50:20;;;;;;;4.00;2.37;;;;;;;12.63;67.68;97448.28;4492086;31;33997;-84
2022/04/01 07:52:48;;;;;;;3.10;2.00;;;;;;;12.57;67.66;97456.75;4480645;31;32798;-83
2022/04/01 07:55:17;;;;;;;4.78;2.78;;;;;;;12.44;68.13;97440.31;4488817;31;34493;-82
2022/04/01 07:57:49;;;;;;;3.60;2.08;;;;;;;12.56;66.76;97449.78;4490853;31;33494;-83
2022/04/01 08:00:36;;;;;;;6.95;2.40;;;;;;;12.25;67.61;97452.50;4487729;31;33556;-83
2022/04/01 08:03:04;;;;;;;2.47;1.80;;;;;;;12.12;68.68;97451.06;4479802;31;32764;-83
2022/04/01 08:05:33;;;;;;;5.15;2.10;;;;;;;12.06;69.16;97460.38;4486740;31;34217;-83
2022/04/01 08:08:00;;;;;;;2.70;1.70;;;;;;;11.99;70.03;97467.97;4478730;31;33042;-83
2022/04/01 08:10:28;;;;;;;2.83;2.50;;;;;;;12.08;69.29;97462.87;4480493;31;33612;-82
2022/04/01 08:12:56;;;;;;;4.55;1.80;;;;;;;12.08;68.75;97468.16;4496450;31;33002;-83
2022/04/01 08:15:23;;;;;;;7.90;2.50;;;;;;;12.03;68.82;97472.03;4482532;31;33756;-83
2022/04/01 08:17:56;;;;;;;3.40;1.75;;;;;;;11.91;69.36;97470.44;4480265;31;34726;-83
2022/04/01 08:20:24;;;;;;;3.50;2.17;;;;;;;12.00;68.94;97468.81;4480492;31;33163;-82
2022/04/01 08:22:51;;;;;;;3.05;1.90;;;;;;;12.24;68.26;97473.78;4486837;31;33121;-83
2022/04/01 08:25:20;;;;;;;2.72;1.67;;;;;;;11.95;69.79;97477.16;4483354;31;32815;-83
2022/04/01 08:27:55;;;;;;;4.15;2.45;;;;;;;12.25;68.85;97472.84;4492424;31;33572;-83
2022/04/01 08:30:23;;;;;;;2.95;2.20;;;;;;;12.43;68.18;97479.13;4489342;31;32320;-82
2022/04/01 08:32:50;;;;;;;3.53;2.25;;;;;;;11.93;69.92;97481.75;4494922;31;33433;-83
2022/04/01 08:35:18;;;;;;;3.42;2.15;;;;;;;12.09;69.00;97491.00;4478267;31;33137;-83
2022/04/01 08:37:46;;;;;;;3.05;2.03;;;;;;;12.01;69.21;97489.88;4494067;31;34568;-82
2022/04/01 08:40:14;;;;;;;4.37;2.37;;;;;;;11.72;70.82;97489.66;4491921;31;34044;-83
2022/04/01 08:42:46;;;;;;;2.42;1.98;;;;;;;11.75;69.58;97489.41;4489992;31;33286;-83
2022/04/01 08:45:18;;;;;;;2.92;2.08;;;;;;;11.70;69.77;97496.06;4489970;31;33599;-82
2022/04/01 08:47:47;;;;;;;2.25;1.80;;;;;;;11.67;69.95;97506.88;4490885;31;33681;-82
2022/04/01 08:50:15;;;;;;;2.37;1.70;;;;;;;11.65;69.52;97514.94;4477665;31;32533;-83
2022/04/01 08:52:43;;;;;;;2.58;2.15;;;;;;;11.62;69.14;97514.38;4478763;31;31928;-83
2022/04/01 08:55:10;;;;;;;3.80;2.42;;;;;;;11.58;69.58;97519.06;4466020;31;32792;-82
2022/04/01 08:57:41;;;;;;;4.60;2.62;;;;;;;11.59;69.16;97520.78;4489320;31;34021;-83
2022/04/01 09:00:11;;;;;;;3.65;2.58;;;;;;;11.73;69.33;97527.53;4478907;31;33840;-83
2022/04/01 09:02:39;;;;;;;2.83;2.50;;;;;;;11.79;69.22;97525.19;4493092;31;34130;-83
2022/04/01 09:05:08;;;;;;;3.22;2.55;;;;;;;11.46;70.34;97520.94;4478413;31;33282;-82
2022/04/01 09:07:36;;;;;;;3.12;2.37;;;;;;;11.35;70.34;97526.31;4491021;31;33987;-83
2022/04/01 09:10:06;;;;;;;3.05;2.17;;;;;;;11.70;68.65;97523.34;4492028;31;33824;-82
2022/04/01 09:12:51;;;;;;;3.10;2.80;;;;;;;11.83;68.09;97517.88;4490541;31;33350;-82
2022/04/01 09:15:19;;;;;;;4.62;3.25;;;;;;;11.54;69.73;97526.44;4491114;31;33505;-82
2022/04/01 09:17:48;;;;;;;3.50;2.62;;;;;;;11.73;69.10;97524.91;4491934;31;34382;-83
2022/04/01 09:20:16;;;;;;;3.50;2.62;;;;;;;11.46;70.36;97523.59;4476308;31;33184;-83
2022/04/01 09:22:45;;;;;;;5.87;2.85;;;;;;;11.76;69.09;97524.63;4491819;31;34066;-83
2022/04/01 09:25:18;;;;;;;2.72;2.05;;;;;;;11.94;68.51;97522.25;4488568;31;33525;-82
2022/04/01 09:27:51;;;;;;;4.43;3.05;;;;;;;11.42;69.54;97530.09;4490809;31;34725;-82
2022/04/01 09:30:31;;;;;;;5.82;2.75;;;;;;;11.17;71.01;97541.03;4491021;31;34928;-82
2022/04/01 09:33:01;;;;;;;5.05;2.87;;;;;;;11.52;68.77;97536.28;4477630;31;33722;-82
2022/04/01 09:35:31;;;;;;;3.75;2.70;;;;;;;11.45;69.32;97535.12;4489081;31;33538;-83
2022/04/01 09:38:03;;;;;;;4.28;3.15;;;;;;;11.46;68.50;97536.81;4475353;31;33966;-82
2022/04/01 09:40:31;;;;;;;6.45;2.97;;;;;;;11.12;69.71;97538.75;4478874;31;33122;-82
2022/04/01 09:43:07;;;;;;;3.62;2.40;;;;;;;10.99;70.34;97538.91;4478079;31;34091;-82
2022/04/01 09:45:38;;;;;;;3.05;2.67;;;;;;;11.33;68.59;97540.59;4490114;31;33892;-83
2022/04/01 09:48:08;;;;;;;;;;;;;;;11.22;69.05;97549.41;4484693;31;32956;-82
2022/04/01 09:50:38;;;;;;;8.23;2.83;;;;;;;11.53;68.27;97548.53;4489376;31;32340;-83
2022/04/01 09:53:05;;;;;;;7.43;5.37;;;;;;;11.48;67.57;97541.94;4465631;31;32655;-82
2022/04/01 09:55:37;;;;;;;67.95;30.17;;;;;;;11.12;69.15;97554.59;4490068;31;34319;-83
2022/04/01 09:58:06;;;;;;;20.50;13.52;;;;;;;11.13;68.99;97548.34;4477108;31;34283;-82
2022/04/01 10:00:37;;;;;;;9.38;4.82;;;;;;;10.92;70.17;97552.72;4478074;31;34316;-83
2022/04/01 10:03:10;;;;;;;4.68;3.42;;;;;;;10.83;70.93;97554.31;4490037;31;32759;-83
2022/04/01 10:05:39;;;;;;;5.05;2.90;;;;;;;11.02;69.72;97549.22;4476040;31;32818;-82
2022/04/01 10:08:10;;;;;;;5.15;3.75;;;;;;;11.10;69.44;97555.69;4479565;31;34916;-82
2022/04/01 10:10:40;;;;;;;5.57;3.92;;;;;;;11.02;70.24;97561.59;4490929;31;33910;-82
2022/04/01 10:13:18;;;;;;;5.22;3.58;;;;;;;10.76;70.89;97559.25;4464593;31;32463;-82
2022/04/01 10:15:45;;;;;;;5.50;3.83;;;;;;;11.11;70.05;97557.34;4484199;31;33451;-84
2022/04/01 10:18:34;;;;;;;5.60;3.30;;;;;;;10.74;71.84;97560.34;4477190;31;33610;-83
2022/04/01 10:21:03;;;;;;;8.15;5.62;;;;;;;11.10;70.36;97567.06;4486996;31;33592;-84
2022/04/01 10:23:36;;;;;;;6.82;4.78;;;;;;;11.11;70.38;97567.91;4463518;31;33937;-82
2022/04/01 10:26:09;;;;;;;6.45;4.50;;;;;;;10.81;71.29;97582.63;4470663;31;32712;-82
2022/04/01 10:28:36;;;;;;;5.35;4.53;;;;;;;11.02;68.63;97575.63;4475992;31;33888;-82
2022/04/01 10:31:04;;;;;;;8.23;4.97;;;;;;;10.86;69.21;97580.47;4490205;31;34502;-83
2022/04/01 10:33:38;;;;;;;6.95;5.07;;;;;;;10.87;69.14;97582.16;4476198;31;34066;-82
2022/04/01 10:36:16;;;;;;;8.80;5.12;;;;;;;11.06;68.29;97585.94;4477582;31;32986;-82
2022/04/01 10:38:47;;;;;;;6.05;5.40;;;;;;;10.94;69.07;97588.62;4492867;31;33536;-82
2022/04/01 10:41:15;;;;;;;8.10;5.57;;;;;;;10.74;69.12;97592.84;4477147;31;32692;-82
2022/04/01 10:43:45;;;;;;;10.10;5.75;;;;;;;10.90;68.59;97592.47;4491239;31;34419;-82
2022/04/01 10:46:15;;;;;;;8.57;5.68;;;;;;;10.52;70.03;97600.78;4476261;31;35429;-82
2022/04/01 10:52:10;;;;;;;6.68;5.45;;;;;;;10.60;70.19;97605.47;4494102;31;33800;-82
2022/04/01 10:54:42;;;;;;;10.70;6.43;;;;;;;10.49;70.43;97604.50;4492924;31;33425;-82
2022/04/01 10:57:25;;;;;;;7.32;5.90;;;;;;;10.77;68.98;97597.88;4487982;31;33760;-82
2022/04/01 10:59:54;;;;;;;10.82;6.87;;;;;;;10.57;70.58;97610.97;4488948;31;33958;-82
2022/04/01 11:02:23;;;;;;;9.23;6.35;;;;;;;10.72;69.37;97609.75;4491841;31;34270;-82
2022/04/01 11:04:52;;;;;;;11.52;7.32;;;;;;;10.67;69.91;97611.91;4493716;31;33349;-82
2022/04/01 11:07:23;;;;;;;10.70;7.10;;;;;;;10.74;69.72;97607.84;4492136;31;33975;-82
2022/04/01 11:09:55;;;;;;;11.45;7.72;;;;;;;10.44;71.92;97611.94;4494760;31;34029;-82
2022/04/01 11:12:42;;;;;;;9.40;7.35;;;;;;;10.46;71.75;97620.56;4477532;31;32994;-82
2022/04/01 11:15:11;;;;;;;9.02;6.47;;;;;;;10.46;72.21;97620.56;4492134;31;33664;-81
2022/04/01 11:17:39;;;;;;;10.10;7.55;;;;;;;10.95;68.97;97616.69;4490047;31;33558;-82
2022/04/01 11:20:15;;;;;;;10.98;7.15;;;;;;;10.80;70.14;97617.91;4475345;31;32797;-82
2022/04/01 11:23:03;;;;;;;8.23;6.47;;;;;;;10.67;69.88;97617.19;4477163;31;33640;-82
2022/04/01 11:25:31;;;;;;;8.45;6.18;;;;;;;10.80;69.14;97612.62;4479475;31;32928;-82
2022/04/01 11:28:01;;;;;;;9.30;6.50;;;;;;;10.91;68.53;97617.88;4477912;31;34623;-82
2022/04/01 11:30:53;;;;;;;8.80;7.20;;;;;;;10.68;70.97;97613.59;4490428;31;33877;-82
2022/04/01 11:33:22;;;;;;;8.77;6.50;;;;;;;11.13;68.28;97608.25;4484279;31;33600;-82
2022/04/01 11:35:50;;;;;;;9.90;6.60;;;;;;;10.98;69.27;97610.34;4477508;31;33731;-82
2022/04/01 11:38:20;;;;;;;10.48;7.60;;;;;;;10.69;70.87;97613.50;4488860;31;33375;-81
2022/04/01 11:40:56;;;;;;;8.38;6.50;;;;;;;11.03;69.15;97619.56;4491433;31;34104;-82
2022/04/01 11:43:25;;;;;;;9.57;7.35;;;;;;;11.08;68.25;97610.44;4493821;31;33389;-82
2022/04/01 11:46:04;;;;;;;10.32;7.03;;;;;;;10.92;68.69;97616.94;4491477;31;32775;-82
2022/04/01 11:48:34;;;;;;;11.35;8.60;;;;;;;10.67;70.61;97614.56;4478241;31;32712;-82
2022/04/01 11:51:13;;;;;;;10.77;7.57;;;;;;;10.75;70.70;97614.81;4491889;31;34098;-82